Atlantic Enterprise — WDI8007 — position and weather

sailwx.info

Track history (hours):
 
Tides and Currents Weather Stations Pressure Air Temp Water Temp Dewpoint Dewpoint Depression Visibility Wind Speed Wind Dir Waves Ship Positions

Atlantic Enterprise

Owner: Donjon Marine Co., Inc., Hillside, NJ. More information available from US FCC via Universal Licensing System and Coast Guard Vessel Documentation Center.

Last reported at 2017-Dec-11 10:59 UTC. Time now 2017-Dec-11 11:24 UTC.
Position N 41°11' W 072°46'.

Length 40 m; draft 6.1 m.

Type: Tow > 200 m length. MMSI: 367313240.

Date/timePositionNaut miles runAvg speedWind from/ knotsBaromVisibWave heightAir tempDewpointWater temp
2017-Dec-11 10:59N 41°11' W 072°46'2 4.8
2017-Dec-11 10:30N 41°12' W 072°43'3 5.7
2017-Dec-11 10:00N 41°12' W 072°39'3 5.9
2017-Dec-11 09:30N 41°11' W 072°35'3 5.9
2017-Dec-11 08:59N 41°10' W 072°31'3 6.1
2017-Dec-11 08:30N 41°11' W 072°27'3 6.4
2017-Dec-11 08:00N 41°12' W 072°23'3 6.4
2017-Dec-11 07:30N 41°13' W 072°19'3 6.2
2017-Dec-11 07:00N 41°14' W 072°15'2 0.6
2017-Dec-11 04:40N 41°14' W 072°13'2 6.7
2017-Dec-11 04:22N 41°14' W 072°16'2 6.6
2017-Dec-11 04:00N 41°13' W 072°19'4 7.3
2017-Dec-11 03:30N 41°12' W 072°24'4 7.4
2017-Dec-11 03:00N 41°12' W 072°28'3 6.4
2017-Dec-11 02:30N 41°12' W 072°33'1 1.6
2017-Dec-11 02:00N 41°12' W 072°34'2 4.4
2017-Dec-11 01:30N 41°13' W 072°31'2 4.3
2017-Dec-11 01:00N 41°14' W 072°28'2 4.1
2017-Dec-11 00:30N 41°14' W 072°26'2 3.4
2017-Dec-11 00:00N 41°15' W 072°23'2 3.3
2017-Dec-10 23:30N 41°15' W 072°21'2 3.7
2017-Dec-10 23:00N 41°14' W 072°24'4 7.5
2017-Dec-10 22:30N 41°14' W 072°29'4 7.6
2017-Dec-10 22:00N 41°13' W 072°34'4 7.6
2017-Dec-10 21:30N 41°12' W 072°38'4 7.6
2017-Dec-10 21:00N 41°11' W 072°43'5 2.8
2017-Dec-10 19:20N 41°10' W 072°49'2 6.5
2017-Dec-10 19:00N 41°10' W 072°46'4 7.8
2017-Dec-10 18:30N 41°11' W 072°41'4 8.1
2017-Dec-10 18:00N 41°12' W 072°36'4 8.2
2017-Dec-10 17:30N 41°13' W 072°31'4 8.0
2017-Dec-10 17:00N 41°14' W 072°26'3 5.3
2017-Dec-10 16:30N 41°14' W 072°22'1 1.8
2017-Dec-10 16:00N 41°15' W 072°22'1 1.2
2017-Dec-10 15:30N 41°15' W 072°23'1 2.0
2017-Dec-10 15:00N 41°15' W 072°21'1 2.1
2017-Dec-10 14:30N 41°15' W 072°23'1 2.4
2017-Dec-10 14:01N 41°15' W 072°21'1 1.1
2017-Dec-10 13:30N 41°15' W 072°22'1 1.4
2017-Dec-10 13:00N 41°14' W 072°22'3 5.3
2017-Dec-10 12:30N 41°14' W 072°26'2 3.9
2017-Dec-10 12:00N 41°15' W 072°23'1 2.6
2017-Dec-10 11:30N 41°14' W 072°21'0 1.0
2017-Dec-10 11:00N 41°15' W 072°21'3 7.0
2017-Dec-10 10:30N 41°14' W 072°26'5 9.6
2017-Dec-10 10:00N 41°13' W 072°32'5 9.4
2017-Dec-10 09:30N 41°12' W 072°38'5 9.0
2017-Dec-10 09:00N 41°11' W 072°44'4 2.1
2017-Dec-10 07:17N 41°10' W 072°49'2 9.1
2017-Dec-10 07:00N 41°11' W 072°45'5 9.4
2017-Dec-10 06:30N 41°12' W 072°39'5 9.7
2017-Dec-10 06:00N 41°13' W 072°33'5 9.8
2017-Dec-10 05:30N 41°14' W 072°27'3 5.3
2017-Dec-10 05:00N 41°15' W 072°23'1 2.0
2017-Dec-10 04:30N 41°15' W 072°22'0 0.8
2017-Dec-10 04:00N 41°15' W 072°22'1 1.6
2017-Dec-10 03:30N 41°14' W 072°23'1 1.0
2017-Dec-10 03:00N 41°14' W 072°22'3 5.2
2017-Dec-10 02:30N 41°14' W 072°26'0 0.5
2017-Dec-10 02:00N 41°14' W 072°26'2 4.4
2017-Dec-10 01:31N 41°15' W 072°23'3 6.5
2017-Dec-10 01:00N 41°14' W 072°27'3 7.0
2017-Dec-10 00:30N 41°13' W 072°31'2 3.3
2017-Dec-10 00:00N 41°14' W 072°29'2 3.9
2017-Dec-09 23:30N 41°14' W 072°27'2 3.9
2017-Dec-09 23:00N 41°15' W 072°24'1 2.9
2017-Dec-09 22:30N 41°15' W 072°22'4 8.1
2017-Dec-09 22:00N 41°14' W 072°28'510.0
2017-Dec-09 21:30N 41°13' W 072°34'5 9.7
2017-Dec-09 21:00N 41°11' W 072°40'5 9.1
2017-Dec-09 20:30N 41°10' W 072°46'2 1.6
2017-Dec-09 19:01N 41°10' W 072°49'1 7.5
2017-Dec-09 18:52N 41°10' W 072°48'3 9.4
2017-Dec-09 18:30N 41°11' W 072°43'5 9.8
2017-Dec-09 18:00N 41°12' W 072°37'5 9.9
2017-Dec-09 17:30N 41°13' W 072°31'5 9.5
2017-Dec-09 17:00N 41°15' W 072°24'2 3.6
2017-Dec-09 16:30N 41°15' W 072°22'0 0.0
2017-Dec-09 16:00N 41°15' W 072°22'0 0.0
2017-Dec-09 15:30N 41°15' W 072°22'0 0.0
2017-Dec-09 15:00N 41°15' W 072°22'0 0.0
2017-Dec-09 14:30N 41°15' W 072°22'0 0.0
2017-Dec-09 14:00N 41°15' W 072°22'0 0.0
2017-Dec-09 13:30N 41°15' W 072°22'0 0.0
2017-Dec-09 13:00N 41°15' W 072°22'0 0.0
2017-Dec-09 12:30N 41°15' W 072°22'0 0.0
2017-Dec-09 12:00N 41°15' W 072°22'1 2.4
2017-Dec-09 11:30N 41°14' W 072°23'1 2.4
2017-Dec-09 11:00N 41°15' W 072°25'510.2
2017-Dec-09 10:30N 41°13' W 072°31'510.4
2017-Dec-09 10:00N 41°12' W 072°38'5 9.8
2017-Dec-09 09:30N 41°10' W 072°44'3 2.2
2017-Dec-09 08:03N 41°10' W 072°49'0 7.1
2017-Dec-09 08:00N 41°10' W 072°48'4 8.5
2017-Dec-09 07:30N 41°11' W 072°43'5 9.3
2017-Dec-09 07:00N 41°12' W 072°37'5 9.4
2017-Dec-09 06:30N 41°13' W 072°31'4 8.9
2017-Dec-09 06:00N 41°15' W 072°25'1 2.8
2017-Dec-09 05:30N 41°15' W 072°23'1 1.6
2017-Dec-09 05:00N 41°15' W 072°22'0 0.0
2017-Dec-09 04:30N 41°15' W 072°22'0 0.0
2017-Dec-09 04:00N 41°15' W 072°22'0 0.0
2017-Dec-09 03:30N 41°15' W 072°22'0 0.0
2017-Dec-09 03:00N 41°15' W 072°22'1 2.3
2017-Dec-09 02:30N 41°14' W 072°23'4 7.8
2017-Dec-09 02:00N 41°14' W 072°28'4 8.2
2017-Dec-09 01:30N 41°13' W 072°33'5 9.5
2017-Dec-09 01:00N 41°11' W 072°39'610.5
2017-Dec-09 00:26N 41°10' W 072°47'1 0.8
2017-Dec-08 23:00N 41°10' W 072°49'1 2.7
2017-Dec-08 22:29N 41°10' W 072°47'3 5.4
2017-Dec-08 21:59N 41°11' W 072°43'4 7.6
2017-Dec-08 21:30N 41°12' W 072°39'4 7.6
2017-Dec-08 21:00N 41°13' W 072°34'4 7.5
2017-Dec-08 20:30N 41°14' W 072°29'3 6.7
2017-Dec-08 20:00N 41°14' W 072°25'2 4.3
2017-Dec-08 19:30N 41°15' W 072°22'1 1.1
2017-Dec-08 19:00N 41°15' W 072°22'0 0.1
2017-Dec-08 18:30N 41°15' W 072°22'0 0.0
2017-Dec-08 18:00N 41°15' W 072°22'  
2017-Dec-01 17:28N 41°15' W 072°22'0 0.0
2017-Dec-01 12:31N 41°15' W 072°22'0 0.0
2017-Dec-01 12:30N 41°15' W 072°22'0 0.0
2017-Dec-01 12:00N 41°15' W 072°22'0 0.0
2017-Dec-01 11:30N 41°15' W 072°22'0 0.0
2017-Dec-01 11:00N 41°15' W 072°22'  
Track history (hours):
 
Tides and Currents Weather Stations Pressure Air Temp Water Temp Dewpoint Dewpoint Depression Visibility Wind Speed Wind Dir Waves Ship Positions

Atlantic Enterprise

Owner: Donjon Marine Co., Inc., Hillside, NJ. More information available from US FCC via Universal Licensing System and Coast Guard Vessel Documentation Center.

Last reported at 2017-Dec-11 10:59 UTC. Time now 2017-Dec-11 11:24 UTC.
Position N 41°11' W 072°46'.

Length 40 m; draft 6.1 m.

Type: Tow > 200 m length. MMSI: 367313240.

Date/timePositionNaut miles runAvg speedWind from/ knotsBaromVisibWave heightAir tempDewpointWater temp
2017-Dec-11 10:59N 41°11' W 072°46'2 4.8
2017-Dec-11 10:30N 41°12' W 072°43'3 5.7
2017-Dec-11 10:00N 41°12' W 072°39'3 5.9
2017-Dec-11 09:30N 41°11' W 072°35'3 5.9
2017-Dec-11 08:59N 41°10' W 072°31'3 6.1
2017-Dec-11 08:30N 41°11' W 072°27'3 6.4
2017-Dec-11 08:00N 41°12' W 072°23'3 6.4
2017-Dec-11 07:30N 41°13' W 072°19'3 6.2
2017-Dec-11 07:00N 41°14' W 072°15'2 0.6
2017-Dec-11 04:40N 41°14' W 072°13'2 6.7
2017-Dec-11 04:22N 41°14' W 072°16'2 6.6
2017-Dec-11 04:00N 41°13' W 072°19'4 7.3
2017-Dec-11 03:30N 41°12' W 072°24'4 7.4
2017-Dec-11 03:00N 41°12' W 072°28'3 6.4
2017-Dec-11 02:30N 41°12' W 072°33'1 1.6
2017-Dec-11 02:00N 41°12' W 072°34'2 4.4
2017-Dec-11 01:30N 41°13' W 072°31'2 4.3
2017-Dec-11 01:00N 41°14' W 072°28'2 4.1
2017-Dec-11 00:30N 41°14' W 072°26'2 3.4
2017-Dec-11 00:00N 41°15' W 072°23'2 3.3
2017-Dec-10 23:30N 41°15' W 072°21'2 3.7
2017-Dec-10 23:00N 41°14' W 072°24'4 7.5
2017-Dec-10 22:30N 41°14' W 072°29'4 7.6
2017-Dec-10 22:00N 41°13' W 072°34'4 7.6
2017-Dec-10 21:30N 41°12' W 072°38'4 7.6
2017-Dec-10 21:00N 41°11' W 072°43'5 2.8
2017-Dec-10 19:20N 41°10' W 072°49'2 6.5
2017-Dec-10 19:00N 41°10' W 072°46'4 7.8
2017-Dec-10 18:30N 41°11' W 072°41'4 8.1
2017-Dec-10 18:00N 41°12' W 072°36'4 8.2
2017-Dec-10 17:30N 41°13' W 072°31'4 8.0
2017-Dec-10 17:00N 41°14' W 072°26'3 5.3
2017-Dec-10 16:30N 41°14' W 072°22'1 1.8
2017-Dec-10 16:00N 41°15' W 072°22'1 1.2
2017-Dec-10 15:30N 41°15' W 072°23'1 2.0
2017-Dec-10 15:00N 41°15' W 072°21'1 2.1
2017-Dec-10 14:30N 41°15' W 072°23'1 2.4
2017-Dec-10 14:01N 41°15' W 072°21'1 1.1
2017-Dec-10 13:30N 41°15' W 072°22'1 1.4
2017-Dec-10 13:00N 41°14' W 072°22'3 5.3
2017-Dec-10 12:30N 41°14' W 072°26'2 3.9
2017-Dec-10 12:00N 41°15' W 072°23'1 2.6
2017-Dec-10 11:30N 41°14' W 072°21'0 1.0
2017-Dec-10 11:00N 41°15' W 072°21'3 7.0
2017-Dec-10 10:30N 41°14' W 072°26'5 9.6
2017-Dec-10 10:00N 41°13' W 072°32'5 9.4
2017-Dec-10 09:30N 41°12' W 072°38'5 9.0
2017-Dec-10 09:00N 41°11' W 072°44'4 2.1
2017-Dec-10 07:17N 41°10' W 072°49'2 9.1
2017-Dec-10 07:00N 41°11' W 072°45'5 9.4
2017-Dec-10 06:30N 41°12' W 072°39'5 9.7
2017-Dec-10 06:00N 41°13' W 072°33'5 9.8
2017-Dec-10 05:30N 41°14' W 072°27'3 5.3
2017-Dec-10 05:00N 41°15' W 072°23'1 2.0
2017-Dec-10 04:30N 41°15' W 072°22'0 0.8
2017-Dec-10 04:00N 41°15' W 072°22'1 1.6
2017-Dec-10 03:30N 41°14' W 072°23'1 1.0
2017-Dec-10 03:00N 41°14' W 072°22'3 5.2
2017-Dec-10 02:30N 41°14' W 072°26'0 0.5
2017-Dec-10 02:00N 41°14' W 072°26'2 4.4
2017-Dec-10 01:31N 41°15' W 072°23'3 6.5
2017-Dec-10 01:00N 41°14' W 072°27'3 7.0
2017-Dec-10 00:30N 41°13' W 072°31'2 3.3
2017-Dec-10 00:00N 41°14' W 072°29'2 3.9
2017-Dec-09 23:30N 41°14' W 072°27'2 3.9
2017-Dec-09 23:00N 41°15' W 072°24'1 2.9
2017-Dec-09 22:30N 41°15' W 072°22'4 8.1
2017-Dec-09 22:00N 41°14' W 072°28'510.0
2017-Dec-09 21:30N 41°13' W 072°34'5 9.7
2017-Dec-09 21:00N 41°11' W 072°40'5 9.1
2017-Dec-09 20:30N 41°10' W 072°46'2 1.6
2017-Dec-09 19:01N 41°10' W 072°49'1 7.5
2017-Dec-09 18:52N 41°10' W 072°48'3 9.4
2017-Dec-09 18:30N 41°11' W 072°43'5 9.8
2017-Dec-09 18:00N 41°12' W 072°37'5 9.9
2017-Dec-09 17:30N 41°13' W 072°31'5 9.5
2017-Dec-09 17:00N 41°15' W 072°24'2 3.6
2017-Dec-09 16:30N 41°15' W 072°22'0 0.0
2017-Dec-09 16:00N 41°15' W 072°22'0 0.0
2017-Dec-09 15:30N 41°15' W 072°22'0 0.0
2017-Dec-09 15:00N 41°15' W 072°22'0 0.0
2017-Dec-09 14:30N 41°15' W 072°22'0 0.0
2017-Dec-09 14:00N 41°15' W 072°22'0 0.0
2017-Dec-09 13:30N 41°15' W 072°22'0 0.0
2017-Dec-09 13:00N 41°15' W 072°22'0 0.0
2017-Dec-09 12:30N 41°15' W 072°22'0 0.0
2017-Dec-09 12:00N 41°15' W 072°22'1 2.4
2017-Dec-09 11:30N 41°14' W 072°23'1 2.4
2017-Dec-09 11:00N 41°15' W 072°25'510.2
2017-Dec-09 10:30N 41°13' W 072°31'510.4
2017-Dec-09 10:00N 41°12' W 072°38'5 9.8
2017-Dec-09 09:30N 41°10' W 072°44'3 2.2
2017-Dec-09 08:03N 41°10' W 072°49'0 7.1
2017-Dec-09 08:00N 41°10' W 072°48'4 8.5
2017-Dec-09 07:30N 41°11' W 072°43'5 9.3
2017-Dec-09 07:00N 41°12' W 072°37'5 9.4
2017-Dec-09 06:30N 41°13' W 072°31'4 8.9
2017-Dec-09 06:00N 41°15' W 072°25'1 2.8
2017-Dec-09 05:30N 41°15' W 072°23'1 1.6
2017-Dec-09 05:00N 41°15' W 072°22'0 0.0
2017-Dec-09 04:30N 41°15' W 072°22'0 0.0
2017-Dec-09 04:00N 41°15' W 072°22'0 0.0
2017-Dec-09 03:30N 41°15' W 072°22'0 0.0
2017-Dec-09 03:00N 41°15' W 072°22'1 2.3
2017-Dec-09 02:30N 41°14' W 072°23'4 7.8
2017-Dec-09 02:00N 41°14' W 072°28'4 8.2
2017-Dec-09 01:30N 41°13' W 072°33'5 9.5
2017-Dec-09 01:00N 41°11' W 072°39'610.5
2017-Dec-09 00:26N 41°10' W 072°47'1 0.8
2017-Dec-08 23:00N 41°10' W 072°49'1 2.7
2017-Dec-08 22:29N 41°10' W 072°47'3 5.4
2017-Dec-08 21:59N 41°11' W 072°43'4 7.6
2017-Dec-08 21:30N 41°12' W 072°39'4 7.6
2017-Dec-08 21:00N 41°13' W 072°34'4 7.5
2017-Dec-08 20:30N 41°14' W 072°29'3 6.7
2017-Dec-08 20:00N 41°14' W 072°25'2 4.3
2017-Dec-08 19:30N 41°15' W 072°22'1 1.1
2017-Dec-08 19:00N 41°15' W 072°22'0 0.1
2017-Dec-08 18:30N 41°15' W 072°22'0 0.0
2017-Dec-08 18:00N 41°15' W 072°22'  
2017-Dec-01 17:28N 41°15' W 072°22'0 0.0
2017-Dec-01 12:31N 41°15' W 072°22'0 0.0
2017-Dec-01 12:30N 41°15' W 072°22'0 0.0
2017-Dec-01 12:00N 41°15' W 072°22'0 0.0
2017-Dec-01 11:30N 41°15' W 072°22'0 0.0
2017-Dec-01 11:00N 41°15' W 072°22'  

Dump ship's entire track history